createdAt,value
2023-02-07T00:01:35.490Z,9.80
2023-02-07T00:04:03.847Z,11.70
2023-02-07T00:06:35.150Z,7.90
2023-02-07T00:09:05.396Z,10.20
2023-02-07T00:11:33.749Z,10.50
2023-02-07T00:14:02.123Z,13.70
2023-02-07T00:16:30.335Z,13.20
2023-02-07T00:19:00.237Z,14.20
2023-02-07T00:21:29.270Z,12.80
2023-02-07T00:23:58.081Z,16.40
2023-02-07T00:26:27.444Z,13.20
2023-02-07T00:28:56.787Z,13.20
2023-02-07T00:31:28.054Z,13.20
2023-02-07T00:34:00.641Z,9.10
2023-02-07T00:36:31.418Z,11.10
2023-02-07T00:39:02.266Z,8.90
2023-02-07T00:41:31.378Z,9.40
2023-02-07T00:44:01.478Z,8.10
2023-02-07T00:46:31.102Z,9.80
2023-02-07T00:48:59.632Z,9.60
2023-02-07T00:51:28.305Z,11.30
2023-02-07T00:53:57.686Z,9.90
2023-02-07T00:56:29.728Z,9.10
2023-02-07T00:59:00.254Z,10.20
2023-02-07T01:01:28.658Z,6.90
2023-02-07T01:03:58.080Z,9.90
2023-02-07T01:06:28.241Z,10.20
2023-02-07T01:08:59.303Z,10.40
2023-02-07T01:11:29.832Z,10.20
2023-02-07T01:14:00.706Z,12.50
2023-02-07T01:16:32.724Z,10.80
2023-02-07T01:19:04.511Z,9.70
2023-02-07T01:21:32.661Z,12.80
2023-02-07T01:24:01.333Z,9.90
2023-02-07T01:26:29.916Z,13.20
2023-02-07T01:28:58.112Z,11.00
2023-02-07T01:31:26.444Z,10.40
2023-02-07T01:33:56.970Z,11.10
2023-02-07T01:36:28.813Z,17.30
2023-02-07T01:38:58.000Z,12.50
2023-02-07T01:41:27.584Z,11.30
2023-02-07T01:44:08.832Z,11.30
2023-02-07T01:46:37.823Z,12.60
2023-02-07T01:49:10.031Z,13.40
2023-02-07T01:51:42.652Z,13.00
2023-02-07T01:54:13.926Z,10.10
2023-02-07T01:56:46.860Z,12.10
2023-02-07T01:59:16.727Z,12.30
2023-02-07T02:01:46.409Z,13.00
2023-02-07T02:04:17.699Z,13.90
2023-02-07T02:06:46.649Z,11.30
2023-02-07T02:09:16.854Z,10.00
2023-02-07T02:12:16.191Z,14.00
2023-02-07T02:15:06.198Z,10.90
2023-02-07T02:17:40.559Z,13.10
2023-02-07T02:20:49.211Z,15.80
2023-02-07T02:23:42.091Z,17.00
2023-02-07T02:26:42.290Z,18.90
2023-02-07T02:29:32.501Z,16.20
2023-02-07T02:32:12.808Z,20.40
2023-02-07T02:35:08.209Z,13.20
2023-02-07T02:37:59.677Z,16.70
2023-02-07T02:40:39.294Z,15.70
2023-02-07T02:43:17.733Z,14.20
2023-02-07T02:45:54.246Z,18.00
2023-02-07T02:48:24.130Z,16.40
2023-02-07T02:50:54.401Z,15.70
2023-02-07T02:53:23.446Z,17.50
2023-02-07T02:56:24.928Z,16.50
2023-02-07T02:59:21.177Z,19.00
2023-02-07T03:02:11.178Z,15.70
2023-02-07T03:04:56.024Z,21.00
2023-02-07T03:07:27.166Z,17.10
2023-02-07T03:10:11.028Z,19.90
2023-02-07T03:13:07.202Z,16.40
2023-02-07T03:15:50.798Z,18.30
2023-02-07T03:18:27.753Z,17.30
2023-02-07T03:21:10.877Z,15.20
2023-02-07T03:23:40.239Z,14.60
2023-02-07T03:26:10.179Z,12.50
2023-02-07T03:28:42.658Z,16.10
2023-02-07T03:31:14.609Z,11.80
2023-02-07T03:33:47.223Z,13.20
2023-02-07T03:36:28.254Z,15.40
2023-02-07T03:38:56.649Z,14.90
2023-02-07T03:41:33.408Z,15.60
2023-02-07T03:44:07.187Z,17.10
2023-02-07T03:46:39.869Z,17.80
2023-02-07T03:49:08.338Z,15.80
2023-02-07T03:51:36.572Z,17.70
2023-02-07T03:54:04.734Z,15.00
2023-02-07T03:56:32.826Z,16.60
2023-02-07T03:59:00.987Z,15.40
2023-02-07T04:01:29.228Z,16.30
2023-02-07T04:03:57.685Z,15.90
2023-02-07T04:06:25.903Z,13.80
2023-02-07T04:08:54.094Z,21.10
2023-02-07T04:11:22.162Z,16.50
2023-02-07T04:13:50.199Z,19.30
2023-02-07T04:16:18.391Z,20.00
2023-02-07T04:18:46.696Z,21.50
2023-02-07T04:21:14.799Z,28.00
2023-02-07T04:23:42.901Z,23.30
2023-02-07T04:26:11.088Z,24.10
2023-02-07T04:28:39.289Z,20.70
2023-02-07T04:31:07.590Z,23.00
2023-02-07T04:33:35.717Z,21.70
2023-02-07T04:36:04.875Z,17.50
2023-02-07T04:38:33.427Z,20.80
2023-02-07T04:41:05.320Z,19.40
2023-02-07T04:43:36.490Z,21.00
2023-02-07T04:46:06.862Z,20.10
2023-02-07T04:48:38.072Z,19.40
2023-02-07T04:51:07.218Z,21.50
2023-02-07T04:53:35.363Z,24.80
2023-02-07T04:56:03.924Z,18.10
2023-02-07T04:58:32.175Z,23.50
2023-02-07T05:01:00.614Z,23.20
2023-02-07T05:03:28.755Z,21.00
2023-02-07T05:05:56.972Z,23.50
2023-02-07T05:08:26.245Z,22.80
2023-02-07T05:10:56.351Z,20.60
2023-02-07T05:13:25.471Z,21.40
2023-02-07T05:15:53.583Z,19.30
2023-02-07T05:18:21.799Z,22.00
2023-02-07T05:20:52.344Z,23.70
2023-02-07T05:23:20.790Z,21.40
2023-02-07T05:25:49.528Z,19.50
2023-02-07T05:28:17.796Z,19.50
2023-02-07T05:30:46.006Z,25.00
2023-02-07T05:33:14.290Z,23.40
2023-02-07T05:35:45.837Z,20.70
2023-02-07T05:38:16.828Z,21.10
2023-02-07T05:40:45.153Z,21.10
2023-02-07T05:43:13.819Z,28.40
2023-02-07T05:45:42.456Z,24.30
2023-02-07T05:48:10.698Z,26.60
2023-02-07T05:50:38.879Z,27.80
2023-02-07T05:53:08.532Z,18.90
2023-02-07T05:55:37.708Z,22.60
2023-02-07T05:58:06.147Z,17.20
2023-02-07T06:00:34.274Z,23.20
2023-02-07T06:03:02.427Z,22.30
2023-02-07T06:05:32.115Z,28.50
2023-02-07T06:08:00.320Z,25.30
2023-02-07T06:10:28.426Z,21.90
2023-02-07T06:12:56.551Z,21.50
2023-02-07T06:15:24.787Z,18.40
2023-02-07T06:17:52.978Z,17.30
2023-02-07T06:20:21.277Z,23.50
2023-02-07T06:22:49.369Z,20.10
2023-02-07T06:25:18.717Z,25.20
2023-02-07T06:27:47.851Z,21.80
2023-02-07T06:30:15.984Z,22.50
2023-02-07T06:32:44.119Z,19.00
2023-02-07T06:35:12.572Z,19.40
2023-02-07T06:37:40.854Z,21.00
2023-02-07T06:40:09.550Z,22.60
2023-02-07T06:42:37.655Z,25.20
2023-02-07T06:45:06.129Z,21.00
2023-02-07T06:47:34.324Z,21.10
2023-02-07T06:50:02.456Z,25.10
2023-02-07T06:52:30.657Z,26.00
2023-02-07T06:54:58.758Z,23.20
2023-02-07T06:57:26.888Z,27.80
2023-02-07T06:59:54.991Z,28.30
2023-02-07T07:02:23.138Z,30.20
2023-02-07T07:04:51.266Z,26.60
2023-02-07T07:07:19.451Z,32.40
2023-02-07T07:09:47.565Z,23.60
2023-02-07T07:12:15.681Z,22.10
2023-02-07T07:14:43.798Z,24.60
2023-02-07T07:17:11.991Z,24.20
2023-02-07T07:19:40.067Z,24.60
2023-02-07T07:22:08.212Z,24.50
2023-02-07T07:24:36.286Z,20.00
2023-02-07T07:27:04.494Z,21.50
2023-02-07T07:29:32.599Z,19.20
2023-02-07T07:32:00.843Z,22.20
2023-02-07T07:34:29.035Z,19.40
2023-02-07T07:36:57.352Z,22.80
2023-02-07T07:39:26.329Z,28.20
2023-02-07T07:41:54.493Z,19.60
2023-02-07T07:44:37.731Z,21.00
2023-02-07T07:47:06.906Z,25.40
2023-02-07T07:49:35.173Z,18.60
2023-02-07T07:52:03.329Z,19.70
2023-02-07T07:54:31.510Z,25.40
2023-02-07T07:56:59.555Z,18.10
2023-02-07T07:59:27.878Z,23.20
2023-02-07T08:01:56.009Z,20.20
2023-02-07T08:04:24.155Z,22.90
2023-02-07T08:06:52.316Z,21.60
2023-02-07T08:09:21.466Z,23.00
2023-02-07T08:11:49.620Z,22.20
2023-02-07T08:14:17.689Z,30.80
2023-02-07T08:16:45.783Z,22.30
2023-02-07T08:19:13.939Z,28.30
2023-02-07T08:21:43.948Z,18.60
2023-02-07T08:24:12.914Z,21.20
2023-02-07T08:26:41.378Z,25.90
2023-02-07T08:29:09.855Z,29.00
2023-02-07T08:31:38.045Z,26.90
2023-02-07T08:34:06.328Z,24.30
2023-02-07T08:36:34.486Z,19.80
2023-02-07T08:39:02.710Z,28.50
2023-02-07T08:41:30.865Z,21.10
2023-02-07T08:44:00.132Z,25.30
2023-02-07T08:46:28.543Z,23.80
2023-02-07T08:48:56.781Z,31.60
2023-02-07T08:51:25.279Z,21.60
2023-02-07T08:53:54.220Z,30.50
2023-02-07T08:56:22.375Z,36.30
2023-02-07T08:58:50.525Z,27.10
2023-02-07T09:01:18.639Z,30.50
2023-02-07T09:03:46.844Z,30.70
2023-02-07T09:06:15.043Z,27.70
2023-02-07T09:08:43.152Z,26.10
2023-02-07T09:11:11.320Z,33.60
2023-02-07T09:13:39.541Z,36.20
2023-02-07T09:16:07.893Z,26.90
2023-02-07T09:18:36.335Z,36.20
2023-02-07T09:21:05.558Z,26.20
2023-02-07T09:23:35.978Z,27.00
2023-02-07T09:26:06.371Z,35.60
2023-02-07T09:28:35.497Z,32.00
2023-02-07T09:31:14.974Z,31.90
2023-02-07T09:33:43.194Z,26.30
2023-02-07T09:36:23.486Z,25.00
2023-02-07T09:38:51.921Z,31.60
2023-02-07T09:41:44.034Z,34.00
2023-02-07T09:44:26.038Z,27.10
2023-02-07T09:47:10.800Z,30.00
2023-02-07T09:49:48.078Z,32.50
2023-02-07T09:52:24.774Z,32.60
2023-02-07T09:54:55.857Z,29.80
2023-02-07T09:57:50.575Z,17.70
2023-02-07T10:00:23.763Z,30.90
2023-02-07T10:03:16.003Z,33.80
2023-02-07T10:06:17.850Z,27.70
2023-02-07T10:08:52.132Z,33.10
2023-02-07T10:11:47.809Z,32.50
2023-02-07T10:14:39.672Z,37.50
2023-02-07T10:17:31.543Z,32.60
2023-02-07T10:20:00.129Z,29.90
2023-02-07T10:22:34.284Z,37.00
2023-02-07T10:25:20.303Z,30.10
2023-02-07T10:28:16.533Z,37.70
2023-02-07T10:30:51.683Z,31.30
2023-02-07T10:33:31.389Z,33.80
2023-02-07T10:36:03.700Z,29.10
2023-02-07T10:38:38.011Z,33.50
2023-02-07T10:41:26.460Z,31.00
2023-02-07T10:43:54.730Z,37.20
2023-02-07T10:46:23.735Z,31.70
2023-02-07T10:48:52.573Z,30.80
2023-02-07T10:51:41.857Z,31.10
2023-02-07T10:54:11.907Z,32.70
2023-02-07T10:56:50.966Z,29.50
2023-02-07T10:59:46.313Z,31.50
2023-02-07T11:02:49.147Z,27.30
2023-02-07T11:05:17.301Z,33.50
2023-02-07T11:08:01.860Z,27.40
2023-02-07T11:10:39.136Z,34.20
2023-02-07T11:13:16.044Z,26.30
2023-02-07T11:15:55.512Z,29.80
2023-02-07T11:18:45.599Z,31.30
2023-02-07T11:21:25.029Z,31.40
2023-02-07T11:23:57.704Z,30.80
2023-02-07T11:26:26.495Z,24.40
2023-02-07T11:29:06.862Z,29.00
2023-02-07T11:31:38.171Z,24.60
2023-02-07T11:34:31.561Z,24.70
2023-02-07T11:37:23.640Z,32.20
2023-02-07T11:39:55.291Z,28.60
2023-02-07T11:42:34.245Z,27.20
2023-02-07T11:45:13.558Z,34.90
2023-02-07T11:47:48.825Z,29.60
2023-02-07T11:50:24.377Z,33.10
2023-02-07T11:52:57.032Z,37.80
2023-02-07T11:55:35.361Z,35.80
2023-02-07T11:58:18.017Z,28.90
2023-02-07T12:00:47.854Z,33.70
2023-02-07T12:03:29.330Z,33.70
2023-02-07T12:06:02.581Z,34.30
2023-02-07T12:08:35.579Z,33.20
2023-02-07T12:11:12.478Z,35.70
2023-02-07T12:13:55.932Z,34.30
2023-02-07T12:16:34.403Z,30.20
2023-02-07T12:19:30.409Z,29.40
2023-02-07T12:22:11.095Z,28.60
2023-02-07T12:25:14.708Z,31.20
2023-02-07T12:27:47.916Z,28.30
2023-02-07T12:32:58.209Z,35.50
2023-02-07T12:58:54.019Z,36.40
2023-02-07T13:01:38.974Z,34.30
2023-02-07T13:04:55.938Z,33.30
2023-02-07T13:07:32.959Z,32.70
2023-02-07T13:10:16.522Z,34.30
2023-02-07T13:12:49.525Z,40.90
2023-02-07T13:15:40.086Z,38.90
2023-02-07T13:18:21.411Z,36.80
2023-02-07T13:20:58.536Z,30.70
2023-02-07T13:23:30.716Z,34.00
2023-02-07T13:26:08.573Z,34.60
2023-02-07T13:29:00.865Z,44.10
2023-02-07T13:31:39.981Z,38.90
2023-02-07T13:34:16.874Z,37.80
2023-02-07T13:36:52.671Z,38.10
2023-02-07T13:39:36.153Z,35.60
2023-02-07T13:44:50.240Z,34.60
2023-02-07T13:47:27.989Z,38.50
2023-02-07T13:50:25.851Z,35.90
2023-02-07T13:53:05.849Z,37.70
2023-02-07T13:55:38.345Z,35.20
2023-02-07T13:58:53.530Z,37.30
2023-02-07T14:01:27.962Z,41.70
2023-02-07T14:04:08.430Z,31.50
2023-02-07T14:06:38.142Z,31.90
2023-02-07T14:09:15.611Z,33.70
2023-02-07T14:11:48.208Z,34.50
2023-02-07T14:14:25.739Z,35.80
2023-02-07T14:16:56.518Z,33.30
2023-02-07T14:19:43.279Z,31.30
2023-02-07T14:22:42.978Z,28.90
2023-02-07T14:25:11.060Z,31.40
2023-02-07T14:27:51.549Z,34.20
2023-02-07T14:30:31.106Z,32.10
2023-02-07T14:33:11.843Z,34.60
2023-02-07T14:36:09.959Z,126.70
2023-02-07T14:39:02.143Z,35.00
2023-02-07T14:41:37.702Z,35.80
2023-02-07T14:44:10.442Z,34.90
2023-02-07T14:46:48.822Z,41.90
2023-02-07T14:49:25.903Z,34.00
2023-02-07T14:52:00.606Z,41.60
2023-02-07T14:54:45.722Z,40.80
2023-02-07T14:57:38.265Z,33.20
2023-02-07T15:00:15.627Z,37.10
2023-02-07T15:02:58.770Z,39.30
2023-02-07T15:08:15.480Z,36.50
2023-02-07T15:10:53.043Z,37.80
2023-02-07T15:13:24.536Z,42.70
2023-02-07T15:15:58.953Z,41.30
2023-02-07T15:18:34.924Z,43.10
2023-02-07T15:21:03.601Z,40.60
2023-02-07T15:23:32.845Z,42.90
2023-02-07T15:26:06.598Z,46.90
2023-02-07T15:28:35.377Z,47.50
2023-02-07T15:31:03.776Z,40.10
2023-02-07T15:33:59.289Z,47.50
2023-02-07T15:36:32.322Z,50.20
2023-02-07T15:39:02.895Z,46.70
2023-02-07T15:41:31.540Z,43.10
2023-02-07T15:44:03.058Z,48.20
2023-02-07T15:46:44.216Z,49.70
2023-02-07T15:49:24.770Z,45.60
2023-02-07T15:51:55.670Z,48.60
2023-02-07T15:54:27.784Z,45.50
2023-02-07T15:56:59.991Z,49.70
2023-02-07T15:59:31.988Z,61.60
2023-02-07T16:02:02.130Z,64.70
2023-02-07T16:04:32.643Z,59.90
2023-02-07T16:07:11.403Z,60.10
2023-02-07T16:09:45.690Z,52.80
2023-02-07T16:12:43.367Z,55.60
2023-02-07T16:15:32.366Z,47.20
2023-02-07T16:18:05.669Z,48.50
2023-02-07T16:20:36.557Z,49.10
2023-02-07T16:23:09.896Z,50.30
2023-02-07T16:25:38.027Z,44.50
2023-02-07T16:28:11.547Z,53.70
2023-02-07T16:30:41.889Z,70.90
2023-02-07T16:33:13.947Z,49.50
2023-02-07T16:35:42.226Z,44.30
2023-02-07T16:38:10.525Z,49.70
2023-02-07T16:40:39.603Z,42.40
2023-02-07T16:43:08.763Z,55.00
2023-02-07T16:45:39.117Z,65.90
2023-02-07T16:48:15.340Z,44.10
2023-02-07T16:50:43.627Z,54.10
2023-02-07T16:53:11.796Z,50.60
2023-02-07T16:55:40.722Z,41.90
2023-02-07T16:58:14.795Z,41.20
2023-02-07T17:00:43.096Z,34.90
2023-02-07T17:03:15.426Z,36.60
2023-02-07T17:05:43.617Z,39.30
2023-02-07T17:08:16.030Z,36.20
2023-02-07T17:10:52.554Z,32.90
2023-02-07T17:13:20.717Z,42.30
2023-02-07T17:15:48.894Z,41.30
2023-02-07T17:18:17.073Z,41.50
2023-02-07T17:20:45.519Z,33.20
2023-02-07T17:23:13.676Z,35.10
2023-02-07T17:25:44.158Z,34.50
2023-02-07T17:28:18.376Z,33.00
2023-02-07T17:30:46.609Z,33.80
2023-02-07T17:33:17.235Z,32.00
2023-02-07T17:35:47.355Z,24.70
2023-02-07T17:38:15.745Z,24.70
2023-02-07T17:40:44.316Z,22.50
2023-02-07T17:43:12.546Z,26.70
2023-02-07T17:45:40.936Z,25.00
2023-02-07T17:48:12.163Z,27.90
2023-02-07T17:50:41.699Z,24.90
2023-02-07T17:53:11.113Z,34.90
2023-02-07T17:55:39.339Z,25.10
2023-02-07T17:58:07.823Z,22.90
2023-02-07T18:00:40.103Z,20.60
2023-02-07T18:03:08.410Z,22.20
2023-02-07T18:05:39.112Z,19.60
2023-02-07T18:08:08.260Z,17.00
2023-02-07T18:10:36.630Z,19.30
2023-02-07T18:13:05.266Z,21.70
2023-02-07T18:15:33.985Z,24.40
2023-02-07T18:18:02.404Z,22.40
2023-02-07T18:20:33.830Z,19.10
2023-02-07T18:23:02.437Z,19.10
2023-02-07T18:25:32.131Z,20.60
2023-02-07T18:28:01.693Z,10.60
2023-02-07T18:30:30.580Z,16.60
2023-02-07T18:32:59.592Z,14.60
2023-02-07T18:35:28.367Z,17.50
2023-02-07T18:37:56.584Z,18.80
2023-02-07T18:40:24.726Z,19.50
2023-02-07T18:42:53.172Z,14.20
2023-02-07T18:45:21.422Z,12.10
2023-02-07T18:47:49.985Z,14.80
2023-02-07T18:50:21.002Z,16.30
2023-02-07T18:52:49.553Z,12.20
2023-02-07T18:55:18.025Z,14.90
2023-02-07T18:57:46.411Z,19.70
2023-02-07T19:00:15.366Z,14.30
2023-02-07T19:02:43.590Z,17.30
2023-02-07T19:05:11.938Z,14.30
2023-02-07T19:07:40.792Z,15.10
2023-02-07T19:10:12.390Z,10.50
2023-02-07T19:12:40.687Z,11.10
2023-02-07T19:15:09.383Z,11.10
2023-02-07T19:17:37.813Z,9.90
2023-02-07T19:20:06.361Z,12.60
2023-02-07T19:22:36.004Z,10.50
2023-02-07T19:25:05.716Z,10.60
2023-02-07T19:27:34.046Z,13.20
2023-02-07T19:30:02.441Z,9.30
2023-02-07T19:32:31.112Z,10.30
2023-02-07T19:34:59.317Z,8.90
2023-02-07T19:37:27.473Z,9.60
2023-02-07T19:39:56.511Z,10.50
2023-02-07T19:42:25.006Z,9.60
2023-02-07T19:44:53.220Z,8.60
2023-02-07T19:47:21.365Z,9.00
2023-02-07T19:49:52.097Z,9.90
2023-02-07T19:52:21.065Z,9.80
2023-02-07T19:54:50.122Z,9.10
2023-02-07T19:57:18.501Z,8.20
2023-02-07T19:59:48.467Z,7.50
2023-02-07T20:02:16.642Z,9.80
2023-02-07T20:04:44.864Z,13.80
2023-02-07T20:07:12.962Z,11.30
2023-02-07T20:09:41.106Z,15.20
2023-02-07T20:12:09.611Z,12.70
2023-02-07T20:14:38.188Z,14.10
2023-02-07T20:17:07.412Z,16.30
2023-02-07T20:19:36.762Z,13.90
2023-02-07T20:22:05.183Z,17.30
2023-02-07T20:24:33.319Z,15.60
2023-02-07T20:27:01.402Z,14.20
2023-02-07T20:29:29.666Z,11.50
2023-02-07T20:31:57.841Z,15.10
2023-02-07T20:34:26.082Z,10.00
2023-02-07T20:36:54.253Z,15.20
2023-02-07T20:39:22.867Z,11.60
2023-02-07T20:41:51.403Z,13.30
2023-02-07T20:44:22.251Z,11.30
2023-02-07T20:46:51.770Z,14.50
2023-02-07T20:49:26.190Z,16.40
2023-02-07T20:51:56.381Z,12.60
2023-02-07T20:54:27.977Z,12.80
2023-02-07T20:56:57.095Z,15.60
2023-02-07T20:59:32.903Z,14.20
2023-02-07T21:02:02.079Z,17.10
2023-02-07T21:04:30.349Z,16.30
2023-02-07T21:06:58.672Z,13.20
2023-02-07T21:09:27.492Z,17.00
2023-02-07T21:11:56.331Z,18.00
2023-02-07T21:14:27.745Z,14.50
2023-02-07T21:16:59.682Z,16.20
2023-02-07T21:19:28.698Z,16.50
2023-02-07T21:21:56.832Z,17.20
2023-02-07T21:24:25.882Z,17.60
2023-02-07T21:26:55.248Z,22.40
2023-02-07T21:29:24.217Z,18.30
2023-02-07T21:31:52.872Z,22.10
2023-02-07T21:34:21.513Z,19.20
2023-02-07T21:36:50.166Z,24.80
2023-02-07T21:39:19.408Z,20.30
2023-02-07T21:41:48.200Z,17.40
2023-02-07T21:44:17.576Z,12.00
2023-02-07T21:46:49.976Z,14.70
2023-02-07T21:49:21.044Z,12.30
2023-02-07T21:51:53.986Z,14.10
2023-02-07T21:54:22.260Z,12.60
2023-02-07T21:56:51.819Z,12.70
2023-02-07T21:59:21.630Z,12.20
2023-02-07T22:01:50.231Z,14.80
2023-02-07T22:04:18.835Z,11.70
2023-02-07T22:06:49.354Z,11.80
2023-02-07T22:09:22.768Z,12.20
2023-02-07T22:11:50.941Z,12.90
2023-02-07T22:14:19.491Z,9.20
2023-02-07T22:16:53.271Z,12.50
2023-02-07T22:19:22.050Z,9.50
2023-02-07T22:21:51.006Z,11.20
2023-02-07T22:24:20.870Z,12.30
2023-02-07T22:26:49.266Z,12.90
2023-02-07T22:29:17.695Z,10.80
2023-02-07T22:31:46.058Z,13.00
2023-02-07T22:34:14.988Z,11.80
2023-02-07T22:36:45.109Z,9.20
2023-02-07T22:39:15.539Z,12.00
2023-02-07T22:41:44.484Z,14.10
2023-02-07T22:44:12.922Z,10.80
2023-02-07T22:46:41.050Z,10.60
2023-02-07T22:49:09.328Z,12.10
2023-02-07T22:51:38.541Z,11.60
2023-02-07T22:54:10.492Z,8.90
2023-02-07T22:56:39.085Z,10.40
2023-02-07T22:59:07.864Z,9.70
2023-02-07T23:01:39.278Z,9.90
2023-02-07T23:04:12.973Z,9.20
2023-02-07T23:06:41.526Z,9.70
2023-02-07T23:09:10.732Z,11.30
2023-02-07T23:11:38.986Z,10.80
2023-02-07T23:14:07.609Z,11.30
2023-02-07T23:16:36.367Z,10.80
2023-02-07T23:19:08.717Z,17.10
2023-02-07T23:21:37.119Z,11.10
2023-02-07T23:24:05.886Z,11.60
2023-02-07T23:26:34.571Z,15.90
2023-02-07T23:29:04.362Z,12.50
2023-02-07T23:31:34.175Z,12.30
2023-02-07T23:34:02.444Z,9.10
2023-02-07T23:36:30.853Z,13.70
2023-02-07T23:38:59.096Z,11.60
2023-02-07T23:41:27.406Z,13.00
2023-02-07T23:43:57.131Z,13.00
2023-02-07T23:46:27.521Z,10.60
2023-02-07T23:48:56.089Z,12.10
2023-02-07T23:51:25.000Z,11.70
2023-02-07T23:53:53.571Z,12.10
2023-02-07T23:56:23.007Z,12.30
2023-02-07T23:58:52.413Z,13.00
